sensor_id;sensor_type;location;lat;lon;timestamp;pressure;altitude;pressure_sealevel;temperature;humidity
51715;BME280;39115;59.332;18.034;2023-02-14T00:00:11;102571.22;;;5.99;59.81
51715;BME280;39115;59.332;18.034;2023-02-14T00:02:32;102569.44;;;5.99;60.23
51715;BME280;39115;59.332;18.034;2023-02-14T00:04:52;102565.00;;;6.00;59.92
51715;BME280;39115;59.332;18.034;2023-02-14T00:07:13;102559.72;;;6.00;59.92
51715;BME280;39115;59.332;18.034;2023-02-14T00:09:34;102558.00;;;5.99;59.98
51715;BME280;39115;59.332;18.034;2023-02-14T00:11:54;102564.16;;;5.99;60.25
51715;BME280;39115;59.332;18.034;2023-02-14T00:14:15;102565.97;;;5.97;59.72
51715;BME280;39115;59.332;18.034;2023-02-14T00:16:55;102566.88;;;5.96;60.08
51715;BME280;39115;59.332;18.034;2023-02-14T00:19:17;102570.44;;;5.95;59.88
51715;BME280;39115;59.332;18.034;2023-02-14T00:21:38;102570.56;;;5.92;59.91
51715;BME280;39115;59.332;18.034;2023-02-14T00:23:59;102571.41;;;5.93;60.14
51715;BME280;39115;59.332;18.034;2023-02-14T00:26:19;102582.00;;;5.93;60.05
51715;BME280;39115;59.332;18.034;2023-02-14T00:28:40;102582.06;;;5.91;60.45
51715;BME280;39115;59.332;18.034;2023-02-14T00:31:00;102580.28;;;5.92;60.21
51715;BME280;39115;59.332;18.034;2023-02-14T00:33:21;102574.13;;;5.91;60.05
51715;BME280;39115;59.332;18.034;2023-02-14T00:35:41;102574.13;;;5.91;60.57
51715;BME280;39115;59.332;18.034;2023-02-14T00:38:02;102589.19;;;5.89;60.09
51715;BME280;39115;59.332;18.034;2023-02-14T00:40:22;102580.44;;;5.87;60.16
51715;BME280;39115;59.332;18.034;2023-02-14T00:42:43;102578.75;;;5.86;60.11
51715;BME280;39115;59.332;18.034;2023-02-14T00:45:03;102584.97;;;5.83;60.66
51715;BME280;39115;59.332;18.034;2023-02-14T00:47:24;102597.34;;;5.83;60.70
51715;BME280;39115;59.332;18.034;2023-02-14T00:49:44;102595.63;;;5.82;60.90
51715;BME280;39115;59.332;18.034;2023-02-14T00:52:05;102597.47;;;5.80;60.61
51715;BME280;39115;59.332;18.034;2023-02-14T00:54:26;102594.81;;;5.80;60.46
51715;BME280;39115;59.332;18.034;2023-02-14T00:56:46;102582.47;;;5.80;60.55
51715;BME280;39115;59.332;18.034;2023-02-14T00:59:07;102574.63;;;5.79;60.62
51715;BME280;39115;59.332;18.034;2023-02-14T01:01:27;102571.16;;;5.77;60.39
51715;BME280;39115;59.332;18.034;2023-02-14T01:03:48;102577.38;;;5.76;60.94
51715;BME280;39115;59.332;18.034;2023-02-14T01:06:08;102589.78;;;5.74;60.34
51715;BME280;39115;59.332;18.034;2023-02-14T01:08:29;102602.16;;;5.72;60.35
51715;BME280;39115;59.332;18.034;2023-02-14T01:10:50;102600.50;;;5.69;61.03
51715;BME280;39115;59.332;18.034;2023-02-14T01:13:12;102590.91;;;5.66;60.54
51715;BME280;39115;59.332;18.034;2023-02-14T01:15:41;102590.00;;;5.67;60.50
51715;BME280;39115;59.332;18.034;2023-02-14T01:18:02;102583.91;;;5.65;60.87
51715;BME280;39115;59.332;18.034;2023-02-14T01:20:22;102594.47;;;5.65;60.45
51715;BME280;39115;59.332;18.034;2023-02-14T01:22:43;102588.41;;;5.63;60.78
51715;BME280;39115;59.332;18.034;2023-02-14T01:25:04;102589.38;;;5.61;60.91
51715;BME280;39115;59.332;18.034;2023-02-14T01:27:24;102582.47;;;5.57;60.79
51715;BME280;39115;59.332;18.034;2023-02-14T01:29:45;102585.22;;;5.53;60.89
51715;BME280;39115;59.332;18.034;2023-02-14T01:32:06;102590.59;;;5.52;61.14
51715;BME280;39115;59.332;18.034;2023-02-14T01:34:26;102585.38;;;5.50;61.28
51715;BME280;39115;59.332;18.034;2023-02-14T01:36:47;102581.06;;;5.48;61.21
51715;BME280;39115;59.332;18.034;2023-02-14T01:39:10;102578.53;;;5.45;61.63
51715;BME280;39115;59.332;18.034;2023-02-14T01:41:34;102589.19;;;5.42;61.41
51715;BME280;39115;59.332;18.034;2023-02-14T01:44:06;102591.97;;;5.38;61.72
51715;BME280;39115;59.332;18.034;2023-02-14T01:46:30;102601.78;;;5.35;61.70
51715;BME280;39115;59.332;18.034;2023-02-14T01:48:53;102596.53;;;5.33;61.71
51715;BME280;39115;59.332;18.034;2023-02-14T01:51:16;102599.22;;;5.32;61.85
51715;BME280;39115;59.332;18.034;2023-02-14T01:53:38;102604.56;;;5.30;61.88
51715;BME280;39115;59.332;18.034;2023-02-14T01:56:03;102602.00;;;5.29;61.53
51715;BME280;39115;59.332;18.034;2023-02-14T01:58:28;102607.38;;;5.26;61.71
51715;BME280;39115;59.332;18.034;2023-02-14T02:00:50;102618.84;;;5.25;61.51
51715;BME280;39115;59.332;18.034;2023-02-14T02:03:18;102618.94;;;5.21;61.72
51715;BME280;39115;59.332;18.034;2023-02-14T02:05:44;102612.06;;;5.17;61.76
51715;BME280;39115;59.332;18.034;2023-02-14T02:08:06;102612.13;;;5.16;61.70
51715;BME280;39115;59.332;18.034;2023-02-14T02:10:27;102609.59;;;5.13;61.61
51715;BME280;39115;59.332;18.034;2023-02-14T02:12:49;102610.50;;;5.12;62.26
51715;BME280;39115;59.332;18.034;2023-02-14T02:15:10;102608.75;;;5.11;61.92
51715;BME280;39115;59.332;18.034;2023-02-14T02:22:54;102622.34;;;5.00;61.77
51715;BME280;39115;59.332;18.034;2023-02-14T02:44:23;102629.03;;;4.83;62.61
51715;BME280;39115;59.332;18.034;2023-02-14T02:53:19;102632.72;;;4.79;62.65
51715;BME280;39115;59.332;18.034;2023-02-14T02:56:02;102640.56;;;4.81;62.26
51715;BME280;39115;59.332;18.034;2023-02-14T02:59:01;102638.84;;;4.80;63.14
51715;BME280;39115;59.332;18.034;2023-02-14T03:01:28;102638.06;;;4.78;63.10
51715;BME280;39115;59.332;18.034;2023-02-14T03:03:55;102645.97;;;4.78;63.24
51715;BME280;39115;59.332;18.034;2023-02-14T03:06:36;102644.25;;;4.77;62.92
51715;BME280;39115;59.332;18.034;2023-02-14T03:08:56;102639.88;;;4.75;62.82
51715;BME280;39115;59.332;18.034;2023-02-14T03:11:17;102638.97;;;4.77;63.21
51715;BME280;39115;59.332;18.034;2023-02-14T03:17:00;102640.78;;;4.74;63.14
51715;BME280;39115;59.332;18.034;2023-02-14T03:19:42;102653.13;;;4.74;63.26
51715;BME280;39115;59.332;18.034;2023-02-14T03:33:05;102644.53;;;4.67;63.46
51715;BME280;39115;59.332;18.034;2023-02-14T03:35:37;102653.34;;;4.66;63.38
51715;BME280;39115;59.332;18.034;2023-02-14T03:38:19;102653.41;;;4.65;63.31
51715;BME280;39115;59.332;18.034;2023-02-14T03:40:45;102654.25;;;4.65;63.36
51715;BME280;39115;59.332;18.034;2023-02-14T03:43:18;102651.63;;;4.65;63.08
51715;BME280;39115;59.332;18.034;2023-02-14T03:45:44;102650.78;;;4.65;63.68
51715;BME280;39115;59.332;18.034;2023-02-14T03:48:08;102659.53;;;4.65;63.21
51715;BME280;39115;59.332;18.034;2023-02-14T03:50:31;102667.41;;;4.67;63.33
51715;BME280;39115;59.332;18.034;2023-02-14T03:52:55;102663.00;;;4.67;63.60
51715;BME280;39115;59.332;18.034;2023-02-14T03:55:23;102659.47;;;4.67;63.37
51715;BME280;39115;59.332;18.034;2023-02-14T03:57:54;102662.09;;;4.68;63.26
51715;BME280;39115;59.332;18.034;2023-02-14T04:00:18;102662.03;;;4.70;63.78
51715;BME280;39115;59.332;18.034;2023-02-14T04:02:42;102655.84;;;4.71;63.72
51715;BME280;39115;59.332;18.034;2023-02-14T04:05:11;102655.78;;;4.72;63.76
51715;BME280;39115;59.332;18.034;2023-02-14T04:07:45;102664.59;;;4.73;63.77
51715;BME280;39115;59.332;18.034;2023-02-14T04:10:07;102666.34;;;4.72;63.21
51715;BME280;39115;59.332;18.034;2023-02-14T04:12:28;102670.78;;;4.72;63.57
51715;BME280;39115;59.332;18.034;2023-02-14T04:14:48;102662.91;;;4.70;63.23
51715;BME280;39115;59.332;18.034;2023-02-14T04:17:09;102667.25;;;4.71;63.22
51715;BME280;39115;59.332;18.034;2023-02-14T04:19:48;102658.44;;;4.72;63.22
51715;BME280;39115;59.332;18.034;2023-02-14T04:22:08;102665.50;;;4.72;63.64
51715;BME280;39115;59.332;18.034;2023-02-14T04:24:29;102662.84;;;4.72;63.84
51715;BME280;39115;59.332;18.034;2023-02-14T04:26:50;102672.53;;;4.71;63.30
51715;BME280;39115;59.332;18.034;2023-02-14T04:29:28;102671.63;;;4.72;63.57
51715;BME280;39115;59.332;18.034;2023-02-14T04:31:49;102669.88;;;4.71;63.63
51715;BME280;39115;59.332;18.034;2023-02-14T04:34:09;102670.78;;;4.72;63.41
51715;BME280;39115;59.332;18.034;2023-02-14T04:36:30;102668.19;;;4.70;63.53
51715;BME280;39115;59.332;18.034;2023-02-14T04:38:50;102679.59;;;4.71;63.73
51715;BME280;39115;59.332;18.034;2023-02-14T04:41:11;102684.03;;;4.69;63.43
51715;BME280;39115;59.332;18.034;2023-02-14T04:43:31;102681.38;;;4.70;63.52
51715;BME280;39115;59.332;18.034;2023-02-14T04:45:52;102689.31;;;4.69;63.75
51715;BME280;39115;59.332;18.034;2023-02-14T04:48:13;102691.13;;;4.68;63.98
51715;BME280;39115;59.332;18.034;2023-02-14T04:50:34;102680.59;;;4.67;63.39
51715;BME280;39115;59.332;18.034;2023-02-14T04:52:54;102684.19;;;4.64;64.20
51715;BME280;39115;59.332;18.034;2023-02-14T04:55:15;102680.69;;;4.64;64.18
51715;BME280;39115;59.332;18.034;2023-02-14T04:57:35;102687.78;;;4.62;64.14
51715;BME280;39115;59.332;18.034;2023-02-14T04:59:56;102687.84;;;4.60;63.61
51715;BME280;39115;59.332;18.034;2023-02-14T05:02:17;102693.19;;;4.58;64.12
51715;BME280;39115;59.332;18.034;2023-02-14T05:04:37;102692.38;;;4.56;63.97
51715;BME280;39115;59.332;18.034;2023-02-14T05:06:58;102682.72;;;4.55;63.98
51715;BME280;39115;59.332;18.034;2023-02-14T05:09:18;102688.91;;;4.54;64.28
51715;BME280;39115;59.332;18.034;2023-02-14T05:11:39;102689.88;;;4.52;64.27
51715;BME280;39115;59.332;18.034;2023-02-14T05:13:59;102690.72;;;4.52;64.20
51715;BME280;39115;59.332;18.034;2023-02-14T05:16:20;102680.22;;;4.51;64.31
51715;BME280;39115;59.332;18.034;2023-02-14T05:18:40;102678.50;;;4.50;63.92
51715;BME280;39115;59.332;18.034;2023-02-14T05:21:01;102681.13;;;4.50;64.17
51715;BME280;39115;59.332;18.034;2023-02-14T05:23:22;102681.13;;;4.50;64.12
51715;BME280;39115;59.332;18.034;2023-02-14T05:25:43;102682.00;;;4.50;64.01
51715;BME280;39115;59.332;18.034;2023-02-14T05:28:03;102688.19;;;4.49;64.60
51715;BME280;39115;59.332;18.034;2023-02-14T05:30:24;102686.41;;;4.50;64.16
51715;BME280;39115;59.332;18.034;2023-02-14T05:32:47;102682.84;;;4.51;64.04
51715;BME280;39115;59.332;18.034;2023-02-14T05:35:07;102681.06;;;4.51;64.20
51715;BME280;39115;59.332;18.034;2023-02-14T05:37:28;102687.16;;;4.53;64.52
51715;BME280;39115;59.332;18.034;2023-02-14T05:39:48;102679.31;;;4.52;64.63
51715;BME280;39115;59.332;18.034;2023-02-14T05:42:09;102689.81;;;4.53;64.23
51715;BME280;39115;59.332;18.034;2023-02-14T05:44:29;102688.97;;;4.53;64.74
51715;BME280;39115;59.332;18.034;2023-02-14T05:46:50;102698.59;;;4.54;64.46
51715;BME280;39115;59.332;18.034;2023-02-14T05:49:10;102692.38;;;4.55;64.45
51715;BME280;39115;59.332;18.034;2023-02-14T05:51:31;102693.22;;;4.57;64.65
51715;BME280;39115;59.332;18.034;2023-02-14T05:53:51;102691.47;;;4.57;64.22
51715;BME280;39115;59.332;18.034;2023-02-14T05:56:12;102686.94;;;4.61;64.29
51715;BME280;39115;59.332;18.034;2023-02-14T05:58:32;102694.81;;;4.63;64.13
51715;BME280;39115;59.332;18.034;2023-02-14T06:00:58;102697.38;;;4.64;64.48
51715;BME280;39115;59.332;18.034;2023-02-14T06:03:18;102704.38;;;4.65;64.23
51715;BME280;39115;59.332;18.034;2023-02-14T06:05:39;102708.75;;;4.66;64.67
51715;BME280;39115;59.332;18.034;2023-02-14T06:07:59;102704.31;;;4.67;64.20
51715;BME280;39115;59.332;18.034;2023-02-14T06:10:23;102697.34;;;4.66;64.49
51715;BME280;39115;59.332;18.034;2023-02-14T06:12:44;102706.19;;;4.65;64.77
51715;BME280;39115;59.332;18.034;2023-02-14T06:15:05;102701.81;;;4.64;64.24
51715;BME280;39115;59.332;18.034;2023-02-14T06:17:26;102707.13;;;4.62;64.29
51715;BME280;39115;59.332;18.034;2023-02-14T06:19:46;102706.25;;;4.62;64.43
51715;BME280;39115;59.332;18.034;2023-02-14T06:22:07;102708.97;;;4.60;64.82
51715;BME280;39115;59.332;18.034;2023-02-14T06:24:27;102706.38;;;4.58;64.85
51715;BME280;39115;59.332;18.034;2023-02-14T06:26:48;102707.31;;;4.56;64.57
51715;BME280;39115;59.332;18.034;2023-02-14T06:29:08;102710.81;;;4.56;64.45
51715;BME280;39115;59.332;18.034;2023-02-14T06:31:29;102707.38;;;4.54;64.61
51715;BME280;39115;59.332;18.034;2023-02-14T06:33:51;102717.06;;;4.54;64.46
51715;BME280;39115;59.332;18.034;2023-02-14T06:36:11;102711.03;;;4.50;64.81
51715;BME280;39115;59.332;18.034;2023-02-14T06:38:32;102703.13;;;4.49;64.68
51715;BME280;39115;59.332;18.034;2023-02-14T06:40:52;102702.28;;;4.48;64.58
51715;BME280;39115;59.332;18.034;2023-02-14T06:43:13;102709.31;;;4.48;64.46
51715;BME280;39115;59.332;18.034;2023-02-14T06:45:33;102696.28;;;4.43;64.85
51715;BME280;39115;59.332;18.034;2023-02-14T06:47:54;102705.81;;;4.47;64.88
51715;BME280;39115;59.332;18.034;2023-02-14T06:50:14;102712.84;;;4.48;64.86
51715;BME280;39115;59.332;18.034;2023-02-14T06:52:35;102711.94;;;4.49;65.08
51715;BME280;39115;59.332;18.034;2023-02-14T06:54:56;102713.66;;;4.50;64.72
51715;BME280;39115;59.332;18.034;2023-02-14T06:57:16;102716.31;;;4.49;64.63
51715;BME280;39115;59.332;18.034;2023-02-14T06:59:37;102715.41;;;4.50;64.45
51715;BME280;39115;59.332;18.034;2023-02-14T07:01:57;102724.22;;;4.49;64.58
51715;BME280;39115;59.332;18.034;2023-02-14T07:04:17;102722.50;;;4.48;64.67
51715;BME280;39115;59.332;18.034;2023-02-14T07:06:38;102718.09;;;4.48;64.88
51715;BME280;39115;59.332;18.034;2023-02-14T07:08:59;102725.13;;;4.48;64.94
51715;BME280;39115;59.332;18.034;2023-02-14T07:11:19;102727.75;;;4.49;64.78
51715;BME280;39115;59.332;18.034;2023-02-14T07:13:40;102740.13;;;4.47;64.52
51715;BME280;39115;59.332;18.034;2023-02-14T07:16:00;102736.63;;;4.47;65.04
51715;BME280;39115;59.332;18.034;2023-02-14T07:18:21;102734.00;;;4.45;64.74
51715;BME280;39115;59.332;18.034;2023-02-14T07:20:41;102730.41;;;4.48;64.64
51715;BME280;39115;59.332;18.034;2023-02-14T07:23:04;102722.56;;;4.46;64.70
51715;BME280;39115;59.332;18.034;2023-02-14T07:25:24;102726.94;;;4.47;64.72
51715;BME280;39115;59.332;18.034;2023-02-14T07:27:47;102732.16;;;4.49;64.78
51715;BME280;39115;59.332;18.034;2023-02-14T07:30:08;102732.13;;;4.50;65.32
51715;BME280;39115;59.332;18.034;2023-02-14T07:32:30;102735.59;;;4.51;65.10
51715;BME280;39115;59.332;18.034;2023-02-14T07:34:50;102742.56;;;4.53;64.93
51715;BME280;39115;59.332;18.034;2023-02-14T07:37:11;102736.31;;;4.56;64.81
51715;BME280;39115;59.332;18.034;2023-02-14T07:39:31;102738.94;;;4.57;64.92
51715;BME280;39115;59.332;18.034;2023-02-14T07:41:52;102737.09;;;4.59;64.89
51715;BME280;39115;59.332;18.034;2023-02-14T07:44:13;102734.38;;;4.63;65.11
51715;BME280;39115;59.332;18.034;2023-02-14T07:46:33;102732.44;;;4.68;64.96
51715;BME280;39115;59.332;18.034;2023-02-14T07:48:54;102734.16;;;4.70;65.12
51715;BME280;39115;59.332;18.034;2023-02-14T07:51:14;102738.41;;;4.74;64.84
51715;BME280;39115;59.332;18.034;2023-02-14T07:53:35;102735.63;;;4.79;64.75
51715;BME280;39115;59.332;18.034;2023-02-14T07:55:55;102737.28;;;4.82;64.71
51715;BME280;39115;59.332;18.034;2023-02-14T07:58:16;102739.03;;;4.83;64.72
51715;BME280;39115;59.332;18.034;2023-02-14T08:00:37;102739.09;;;4.81;64.55
51715;BME280;39115;59.332;18.034;2023-02-14T08:02:57;102744.31;;;4.83;64.91
51715;BME280;39115;59.332;18.034;2023-02-14T08:05:18;102741.59;;;4.84;65.06
51715;BME280;39115;59.332;18.034;2023-02-14T08:07:39;102749.44;;;4.87;64.79
51715;BME280;39115;59.332;18.034;2023-02-14T08:09:59;102746.81;;;4.87;64.28
51715;BME280;39115;59.332;18.034;2023-02-14T08:12:20;102745.00;;;4.88;64.27
51715;BME280;39115;59.332;18.034;2023-02-14T08:14:59;102743.25;;;4.88;64.83
51715;BME280;39115;59.332;18.034;2023-02-14T08:17:39;102752.03;;;4.89;64.83
51715;BME280;39115;59.332;18.034;2023-02-14T08:19:59;102753.75;;;4.90;64.56
51715;BME280;39115;59.332;18.034;2023-02-14T08:22:20;102757.25;;;4.90;64.51
51715;BME280;39115;59.332;18.034;2023-02-14T08:24:40;102756.25;;;4.95;64.40
51715;BME280;39115;59.332;18.034;2023-02-14T08:27:01;102747.38;;;4.97;64.73
51715;BME280;39115;59.332;18.034;2023-02-14T08:29:22;102747.28;;;5.00;64.28
51715;BME280;39115;59.332;18.034;2023-02-14T08:31:43;102750.72;;;5.02;64.12
51715;BME280;39115;59.332;18.034;2023-02-14T08:34:05;102745.34;;;5.05;64.35
51715;BME280;39115;59.332;18.034;2023-02-14T08:36:25;102745.28;;;5.07;64.62
51715;BME280;39115;59.332;18.034;2023-02-14T08:38:46;102740.81;;;5.09;64.14
51715;BME280;39115;59.332;18.034;2023-02-14T08:41:07;102744.22;;;5.13;64.47
51715;BME280;39115;59.332;18.034;2023-02-14T08:43:27;102737.00;;;5.18;64.13
51715;BME280;39115;59.332;18.034;2023-02-14T08:45:51;102737.75;;;5.23;63.87
51715;BME280;39115;59.332;18.034;2023-02-14T08:48:13;102745.53;;;5.26;64.25
51715;BME280;39115;59.332;18.034;2023-02-14T08:50:34;102742.88;;;5.28;64.36
51715;BME280;39115;59.332;18.034;2023-02-14T08:52:55;102741.84;;;5.32;64.27
51715;BME280;39115;59.332;18.034;2023-02-14T08:55:15;102746.06;;;5.37;64.25
51715;BME280;39115;59.332;18.034;2023-02-14T08:57:36;102746.81;;;5.41;64.18
51715;BME280;39115;59.332;18.034;2023-02-14T08:59:57;102753.66;;;5.47;64.07
51715;BME280;39115;59.332;18.034;2023-02-14T09:02:17;102750.00;;;5.51;63.83
51715;BME280;39115;59.332;18.034;2023-02-14T09:04:38;102752.56;;;5.52;64.01
51715;BME280;39115;59.332;18.034;2023-02-14T09:06:58;102756.16;;;5.51;63.66
51715;BME280;39115;59.332;18.034;2023-02-14T09:09:19;102750.00;;;5.51;63.78
51715;BME280;39115;59.332;18.034;2023-02-14T09:11:39;102759.72;;;5.50;63.44
51715;BME280;39115;59.332;18.034;2023-02-14T09:14:00;102749.19;;;5.49;63.50
51715;BME280;39115;59.332;18.034;2023-02-14T09:16:21;102755.28;;;5.51;63.48
51715;BME280;39115;59.332;18.034;2023-02-14T09:18:43;102752.69;;;5.49;63.40
51715;BME280;39115;59.332;18.034;2023-02-14T09:21:10;102746.44;;;5.52;63.17
51715;BME280;39115;59.332;18.034;2023-02-14T09:23:31;102741.16;;;5.52;63.20
51715;BME280;39115;59.332;18.034;2023-02-14T09:26:03;102749.75;;;5.59;63.09
51715;BME280;39115;59.332;18.034;2023-02-14T09:28:24;102748.56;;;5.67;63.18
51715;BME280;39115;59.332;18.034;2023-02-14T09:30:45;102756.22;;;5.75;63.38
51715;BME280;39115;59.332;18.034;2023-02-14T09:33:05;102744.53;;;5.81;63.04
51715;BME280;39115;59.332;18.034;2023-02-14T09:35:25;102749.66;;;5.85;62.62
51715;BME280;39115;59.332;18.034;2023-02-14T09:37:46;102744.16;;;5.92;63.02
51715;BME280;39115;59.332;18.034;2023-02-14T09:40:07;102747.56;;;5.95;62.97
51715;BME280;39115;59.332;18.034;2023-02-14T09:42:44;102742.13;;;6.00;62.57
51715;BME280;39115;59.332;18.034;2023-02-14T09:45:26;102746.25;;;6.09;62.57
51715;BME280;39115;59.332;18.034;2023-02-14T09:50:21;102741.38;;;6.22;62.32
51715;BME280;39115;59.332;18.034;2023-02-14T09:52:46;102734.03;;;6.28;62.37
51715;BME280;39115;59.332;18.034;2023-02-14T09:55:13;102742.63;;;6.35;62.39
51715;BME280;39115;59.332;18.034;2023-02-14T09:57:46;102738.81;;;6.42;62.09
51715;BME280;39115;59.332;18.034;2023-02-14T10:12:09;102738.59;;;6.71;61.86
51715;BME280;39115;59.332;18.034;2023-02-14T10:14:34;102733.91;;;6.77;61.87
51715;BME280;39115;59.332;18.034;2023-02-14T10:19:55;102727.94;;;6.94;61.72
51715;BME280;39115;59.332;18.034;2023-02-14T10:22:22;102723.25;;;7.01;61.47
51715;BME280;39115;59.332;18.034;2023-02-14T10:24:53;102719.41;;;7.08;61.30
51715;BME280;39115;59.332;18.034;2023-02-14T10:27:35;102717.47;;;7.14;61.49
51715;BME280;39115;59.332;18.034;2023-02-14T10:29:59;102725.22;;;7.18;61.05
51715;BME280;39115;59.332;18.034;2023-02-14T10:32:28;102730.31;;;7.23;60.82
51715;BME280;39115;59.332;18.034;2023-02-14T10:34:50;102727.53;;;7.26;61.04
51715;BME280;39115;59.332;18.034;2023-02-14T10:47:30;102716.34;;;7.40;60.66
51715;BME280;39115;59.332;18.034;2023-02-14T10:50:02;102718.00;;;7.42;60.50
51715;BME280;39115;59.332;18.034;2023-02-14T10:58:11;102712.25;;;7.53;60.26
51715;BME280;39115;59.332;18.034;2023-02-14T11:00:35;102716.53;;;7.56;60.17
51715;BME280;39115;59.332;18.034;2023-02-14T11:02:59;102712.84;;;7.60;59.93
51715;BME280;39115;59.332;18.034;2023-02-14T11:07:44;102712.56;;;7.66;60.01
51715;BME280;39115;59.332;18.034;2023-02-14T11:10:10;102706.25;;;7.69;60.10
51715;BME280;39115;59.332;18.034;2023-02-14T11:12:38;102710.56;;;7.71;59.92
51715;BME280;39115;59.332;18.034;2023-02-14T11:17:48;102699.19;;;7.69;60.39
51715;BME280;39115;59.332;18.034;2023-02-14T11:22:41;102706.13;;;7.72;59.70
51715;BME280;39115;59.332;18.034;2023-02-14T11:25:16;102706.91;;;7.74;60.05
51715;BME280;39115;59.332;18.034;2023-02-14T11:27:37;102704.22;;;7.75;59.71
51715;BME280;39115;59.332;18.034;2023-02-14T11:30:12;102697.81;;;7.80;59.97
51715;BME280;39115;59.332;18.034;2023-02-14T11:32:37;102694.25;;;7.81;59.90
51715;BME280;39115;59.332;18.034;2023-02-14T11:35:34;102695.13;;;7.81;59.96
51715;BME280;39115;59.332;18.034;2023-02-14T11:37:55;102694.16;;;7.82;59.86
51715;BME280;39115;59.332;18.034;2023-02-14T11:40:29;102688.88;;;7.82;59.92
51715;BME280;39115;59.332;18.034;2023-02-14T11:42:51;102686.94;;;7.86;60.00
51715;BME280;39115;59.332;18.034;2023-02-14T11:45:33;102685.88;;;7.90;59.79
51715;BME280;39115;59.332;18.034;2023-02-14T11:48:08;102684.09;;;7.90;59.73
51715;BME280;39115;59.332;18.034;2023-02-14T11:50:31;102678.72;;;7.92;59.17
51715;BME280;39115;59.332;18.034;2023-02-14T11:52:54;102676.94;;;7.93;59.19
51715;BME280;39115;59.332;18.034;2023-02-14T11:55:27;102673.25;;;7.95;59.66
51715;BME280;39115;59.332;18.034;2023-02-14T11:57:48;102675.88;;;7.97;59.45
51715;BME280;39115;59.332;18.034;2023-02-14T12:00:14;102674.78;;;8.01;59.18
51715;BME280;39115;59.332;18.034;2023-02-14T12:02:44;102673.78;;;8.03;58.95
51715;BME280;39115;59.332;18.034;2023-02-14T12:05:22;102675.41;;;8.06;59.02
51715;BME280;39115;59.332;18.034;2023-02-14T12:07:47;102666.53;;;8.07;58.73
51715;BME280;39115;59.332;18.034;2023-02-14T12:12:35;102661.94;;;8.11;59.16
51715;BME280;39115;59.332;18.034;2023-02-14T12:18:46;102658.16;;;8.16;58.94
51715;BME280;39115;59.332;18.034;2023-02-14T12:20:52;102658.88;;;8.20;59.08
51715;BME280;39115;59.332;18.034;2023-02-14T12:28:49;102657.81;;;8.24;58.56
51715;BME280;39115;59.332;18.034;2023-02-14T12:31:12;102657.72;;;8.26;58.77
51715;BME280;39115;59.332;18.034;2023-02-14T12:33:33;102659.44;;;8.27;58.38
51715;BME280;39115;59.332;18.034;2023-02-14T12:43:48;102645.88;;;8.33;58.48
51715;BME280;39115;59.332;18.034;2023-02-14T12:51:38;102643.22;;;8.33;58.39
51715;BME280;39115;59.332;18.034;2023-02-14T12:54:26;102636.19;;;8.32;57.99
51715;BME280;39115;59.332;18.034;2023-02-14T13:05:05;102625.66;;;8.30;57.92
51715;BME280;39115;59.332;18.034;2023-02-14T13:10:18;102622.78;;;8.35;57.77
51715;BME280;39115;59.332;18.034;2023-02-14T13:15:41;102623.41;;;8.40;58.02
51715;BME280;39115;59.332;18.034;2023-02-14T13:20:43;102624.13;;;8.44;58.40
51715;BME280;39115;59.332;18.034;2023-02-14T13:23:17;102616.09;;;8.45;57.85
51715;BME280;39115;59.332;18.034;2023-02-14T13:25:42;102626.59;;;8.48;57.34
51715;BME280;39115;59.332;18.034;2023-02-14T13:28:12;102629.16;;;8.50;57.86
51715;BME280;39115;59.332;18.034;2023-02-14T13:30:35;102616.91;;;8.47;57.48
51715;BME280;39115;59.332;18.034;2023-02-14T13:33:01;102624.66;;;8.52;57.61
51715;BME280;39115;59.332;18.034;2023-02-14T13:35:26;102622.84;;;8.52;57.29
51715;BME280;39115;59.332;18.034;2023-02-14T13:37:54;102626.38;;;8.53;57.12
51715;BME280;39115;59.332;18.034;2023-02-14T13:40:22;102627.31;;;8.52;57.18
51715;BME280;39115;59.332;18.034;2023-02-14T13:48:01;102627.44;;;8.49;57.67
51715;BME280;39115;59.332;18.034;2023-02-14T13:50:22;102629.16;;;8.50;57.54
51715;BME280;39115;59.332;18.034;2023-02-14T13:52:47;102618.63;;;8.48;57.05
51715;BME280;39115;59.332;18.034;2023-02-14T13:55:14;102609.84;;;8.46;57.58
51715;BME280;39115;59.332;18.034;2023-02-14T13:57:36;102617.88;;;8.45;57.20
51715;BME280;39115;59.332;18.034;2023-02-14T14:02:52;102618.03;;;8.42;57.61
51715;BME280;39115;59.332;18.034;2023-02-14T14:10:44;102618.34;;;8.35;57.29
51715;BME280;39115;59.332;18.034;2023-02-14T14:13:06;102610.47;;;8.34;57.34
51715;BME280;39115;59.332;18.034;2023-02-14T14:15:26;102613.25;;;8.31;57.44
51715;BME280;39115;59.332;18.034;2023-02-14T14:18:29;102603.66;;;8.28;57.27
51715;BME280;39115;59.332;18.034;2023-02-14T14:20:30;102601.91;;;8.27;57.23
51715;BME280;39115;59.332;18.034;2023-02-14T14:22:59;102616.06;;;8.28;57.28
51715;BME280;39115;59.332;18.034;2023-02-14T14:27:52;102603.88;;;8.23;57.19
51715;BME280;39115;59.332;18.034;2023-02-14T14:30:23;102601.34;;;8.20;57.47
51715;BME280;39115;59.332;18.034;2023-02-14T14:32:45;102602.44;;;8.16;57.88
51715;BME280;39115;59.332;18.034;2023-02-14T14:37:34;102596.28;;;8.16;57.45
51715;BME280;39115;59.332;18.034;2023-02-14T14:39:57;102593.69;;;8.14;57.27
51715;BME280;39115;59.332;18.034;2023-02-14T14:42:18;102592.94;;;8.12;57.22
51715;BME280;39115;59.332;18.034;2023-02-14T14:44:50;102590.41;;;8.09;57.45
51715;BME280;39115;59.332;18.034;2023-02-14T14:47:20;102587.88;;;8.06;57.75
51715;BME280;39115;59.332;18.034;2023-02-14T14:49:41;102588.06;;;8.03;57.85
51715;BME280;39115;59.332;18.034;2023-02-14T14:52:25;102581.03;;;8.02;57.85
51715;BME280;39115;59.332;18.034;2023-02-14T14:54:47;102578.50;;;7.99;57.88
51715;BME280;39115;59.332;18.034;2023-02-14T14:57:13;102580.41;;;7.97;58.22